Time;durP1;ratioP1;P1;durP2;ratioP2;P2;SDS_P1;SDS_P2;PMS_P1;PMS_P2;Temp;Humidity;BMP_temperature;BMP_pressure;BME280_temperature;BME280_humidity;BME280_pressure;Samples;Min_cycle;Max_cycle;Signal;HPM_P1;HPM_P2
2023/10/07 00:02:52;;;;;;;8.57;6.70;;;;;;;16.70;100.00;99008.22;5114630;28;20175;-57
2023/10/07 00:05:25;;;;;;;7.20;5.85;;;;;;;16.84;100.00;99034.00;5114620;28;20262;-57
2023/10/07 00:07:51;;;;;;;8.27;5.70;;;;;;;16.70;100.00;99020.44;5114799;28;20179;-57
2023/10/07 00:10:25;;;;;;;8.38;5.90;;;;;;;16.62;100.00;98996.75;5114645;28;20660;-57
2023/10/07 00:12:52;;;;;;;8.80;5.30;;;;;;;16.70;100.00;99013.44;5114693;28;20206;-57
2023/10/07 00:15:21;;;;;;;8.48;6.03;;;;;;;16.82;100.00;99032.47;5114603;28;20176;-57
2023/10/07 00:17:47;;;;;;;7.47;5.85;;;;;;;16.58;100.00;98984.88;5114604;28;20235;-57
2023/10/07 00:20:12;;;;;;;10.60;6.10;;;;;;;16.50;100.00;98982.91;5114806;28;20182;-57
2023/10/07 00:22:42;;;;;;;8.88;5.93;;;;;;;16.72;100.00;99008.06;5114466;28;20172;-57
2023/10/07 00:25:08;;;;;;;9.23;5.60;;;;;;;16.76;100.00;99017.31;5114499;28;20175;-57
2023/10/07 00:27:42;;;;;;;7.10;5.95;;;;;;;16.71;100.00;99009.03;5114443;28;20175;-57
2023/10/07 00:30:22;;;;;;;9.57;6.00;;;;;;;16.96;100.00;99032.97;5114398;28;20636;-57
2023/10/07 00:32:48;;;;;;;8.65;5.90;;;;;;;16.99;100.00;99044.97;5114247;28;20346;-57
2023/10/07 00:35:16;;;;;;;7.22;5.95;;;;;;;17.11;100.00;99057.00;5113970;28;20175;-57
2023/10/07 00:37:44;;;;;;;8.75;5.88;;;;;;;17.19;100.00;99055.38;5113898;28;20191;-57
2023/10/07 00:40:40;;;;;;;8.43;6.65;;;;;;;17.19;100.00;99042.31;5114100;28;20182;-57
2023/10/07 00:43:08;;;;;;;10.43;6.28;;;;;;;17.19;100.00;99046.72;5114091;28;20175;-57
2023/10/07 00:45:34;;;;;;;9.07;5.97;;;;;;;17.08;100.00;99052.03;5114116;28;20199;-57
2023/10/07 00:48:04;;;;;;;6.47;5.68;;;;;;;16.79;100.00;99007.41;5114343;28;20175;-57
2023/10/07 00:50:30;;;;;;;8.65;6.20;;;;;;;16.82;100.00;99029.84;5114060;28;20183;-57
2023/10/07 00:52:57;;;;;;;7.90;5.82;;;;;;;16.90;100.00;99053.59;5113853;28;20199;-57
2023/10/07 00:55:31;;;;;;;12.85;7.07;;;;;;;16.90;100.00;99053.59;5113842;28;20267;-57
2023/10/07 01:00:47;;;;;;;9.50;5.82;;;;;;;16.80;100.00;99055.31;5113810;28;20235;-57
2023/10/07 01:08:28;;;;;;;7.28;5.90;;;;;;;16.70;100.00;99023.03;5113758;28;20236;-57
2023/10/07 01:13:48;;;;;;;7.53;6.20;;;;;;;16.61;100.00;99010.75;5113422;28;20294;-57
2023/10/07 01:16:24;;;;;;;7.70;5.55;;;;;;;16.54;100.00;98994.75;5050246;28;20680;-57
2023/10/07 01:18:50;;;;;;;6.78;5.72;;;;;;;16.77;100.00;99039.88;5050372;28;20195;-57
2023/10/07 01:21:30;;;;;;;7.47;6.22;;;;;;;16.70;100.00;99050.03;5050193;28;20189;-57
2023/10/07 01:23:56;;;;;;;7.60;5.97;;;;;;;16.58;100.00;99044.97;5050334;28;20204;-57
2023/10/07 01:26:23;;;;;;;7.38;5.50;;;;;;;16.30;100.00;99020.28;5050280;28;20566;-57
2023/10/07 01:28:56;;;;;;;5.70;4.75;;;;;;;16.41;100.00;99037.69;5050159;28;20189;-56
2023/10/07 01:31:23;;;;;;;8.27;5.78;;;;;;;16.15;100.00;99003.22;5050069;28;20264;-55
2023/10/07 01:33:48;;;;;;;7.03;5.43;;;;;;;16.28;100.00;99000.44;5049901;28;20640;-55
2023/10/07 01:36:24;;;;;;;7.65;5.95;;;;;;;16.52;100.00;99035.88;5049978;28;20181;-56
2023/10/07 01:38:53;;;;;;;6.05;4.97;;;;;;;16.47;100.00;99016.28;5049961;28;20192;-56
2023/10/07 01:41:19;;;;;;;7.38;5.22;;;;;;;16.47;98.58;99047.63;5049800;28;20182;-56
2023/10/07 01:44:05;;;;;;;6.38;5.18;;;;;;;16.44;100.00;99019.97;5049866;28;20378;-56
2023/10/07 01:46:32;;;;;;;6.80;5.13;;;;;;;16.66;95.97;99024.25;5049763;28;20225;-56
2023/10/07 01:49:16;;;;;;;6.97;6.28;;;;;;;16.72;99.63;99032.41;5049699;28;20493;-56
2023/10/07 01:51:44;;;;;;;7.20;5.60;;;;;;;16.58;99.51;99004.00;5049718;28;20214;-56
2023/10/07 01:54:11;;;;;;;5.78;5.20;;;;;;;16.67;99.19;99007.66;5098017;28;20183;-56
2023/10/07 01:56:38;;;;;;;9.95;5.22;;;;;;;16.71;98.70;99014.25;5112608;28;20183;-56
2023/10/07 02:01:43;;;;;;;10.32;5.60;;;;;;;16.88;93.36;99029.34;5112618;28;20194;-56
2023/10/07 02:04:18;;;;;;;8.93;5.13;;;;;;;16.72;93.08;98992.38;5112439;28;20167;-56
2023/10/07 02:06:54;;;;;;;8.13;4.75;;;;;;;16.85;94.49;99021.78;5112484;28;20194;-57
2023/10/07 02:09:27;;;;;;;6.03;4.75;;;;;;;16.99;92.53;99026.66;5112177;28;20565;-56
2023/10/07 02:11:53;;;;;;;7.10;5.53;;;;;;;16.80;91.77;98997.81;5112069;28;20596;-56
2023/10/07 02:14:23;;;;;;;7.85;5.82;;;;;;;17.03;91.29;99025.44;5112018;28;20250;-56
2023/10/07 02:16:49;;;;;;;10.57;5.50;;;;;;;17.10;92.73;99026.56;5111462;28;20205;-57
2023/10/07 02:19:26;;;;;;;6.90;5.50;;;;;;;17.16;92.23;99028.66;5112146;28;20637;-56
2023/10/07 02:21:52;;;;;;;9.70;5.30;;;;;;;16.99;91.87;98998.75;5112113;28;20273;-57
2023/10/07 02:24:21;;;;;;;8.93;5.18;;;;;;;17.08;92.03;99011.00;5111821;28;20661;-57
2023/10/07 02:26:53;;;;;;;6.55;5.53;;;;;;;17.27;91.57;99039.03;5112016;28;20179;-57
2023/10/07 02:29:19;;;;;;;8.65;5.05;;;;;;;17.25;90.18;99027.91;5112387;28;20266;-57
2023/10/07 02:31:45;;;;;;;6.60;5.45;;;;;;;17.36;89.14;99040.84;5111811;28;20179;-57
2023/10/07 02:34:24;;;;;;;8.15;5.70;;;;;;;17.14;89.16;99020.94;5112003;28;20239;-56
2023/10/07 02:37:09;;;;;;;7.55;5.07;;;;;;;17.19;91.00;99047.53;5111907;28;20270;-57
2023/10/07 02:39:45;;;;;;;10.20;5.05;;;;;;;16.88;91.83;98990.97;5111974;28;20687;-57
2023/10/07 02:42:12;;;;;;;6.55;5.07;;;;;;;16.93;92.37;99011.50;5111787;28;20186;-57
2023/10/07 02:44:41;;;;;;;7.20;5.13;;;;;;;17.13;91.79;99042.81;5111789;28;20180;-57
2023/10/07 02:47:11;;;;;;;11.00;5.35;;;;;;;16.82;90.85;99007.19;5111716;28;20664;-57
2023/10/07 02:49:38;;;;;;;6.97;5.82;;;;;;;16.91;91.21;99022.06;5111755;28;20179;-56
2023/10/07 02:52:03;;;;;;;7.43;5.25;;;;;;;16.81;91.47;98994.22;5111305;28;20553;-57
2023/10/07 02:54:41;;;;;;;7.93;5.10;;;;;;;17.05;91.18;99033.97;5111701;28;20170;-56
2023/10/07 02:57:08;;;;;;;6.38;5.13;;;;;;;17.07;90.02;99032.06;5111672;28;20265;-57
2023/10/07 02:59:35;;;;;;;9.80;5.05;;;;;;;16.98;89.84;99020.63;5111478;28;20178;-57
2023/10/07 03:02:12;;;;;;;7.90;5.35;;;;;;;16.90;91.10;99022.22;5111565;28;20629;-58
2023/10/07 03:04:59;;;;;;;8.05;5.22;;;;;;;16.79;91.10;99010.03;5111562;28;20170;-58
2023/10/07 03:07:25;;;;;;;9.63;4.93;;;;;;;16.78;90.71;99004.94;5111503;28;20178;-58
2023/10/07 03:09:54;;;;;;;8.63;4.93;;;;;;;16.78;89.57;99008.38;5111499;28;20180;-58
2023/10/07 03:12:29;;;;;;;9.40;5.50;;;;;;;16.70;89.99;99012.59;5111281;28;20294;-57
2023/10/07 03:14:58;;;;;;;9.88;5.50;;;;;;;16.55;89.75;98998.22;5111509;28;20179;-57
2023/10/07 03:17:33;;;;;;;7.22;5.13;;;;;;;16.62;90.40;99025.47;5111401;28;20167;-58
2023/10/07 03:20:23;;;;;;;7.40;5.28;;;;;;;16.37;91.66;99004.91;5111374;28;20655;-57
2023/10/07 03:23:10;;;;;;;8.38;5.28;;;;;;;16.62;91.16;99031.53;5110839;28;20179;-57
2023/10/07 03:25:47;;;;;;;7.78;5.15;;;;;;;16.53;92.80;99052.34;5110201;28;20187;-57
2023/10/07 03:28:16;;;;;;;8.43;6.05;;;;;;;16.46;92.66;99036.38;5112005;28;20641;-57
2023/10/07 03:30:46;;;;;;;9.10;5.35;;;;;;;16.34;91.85;99006.00;5115829;28;20220;-57
2023/10/07 03:33:15;;;;;;;11.80;5.78;;;;;;;16.46;91.54;99009.41;5115470;28;20203;-57
2023/10/07 03:38:25;;;;;;;7.80;5.82;;;;;;;16.66;92.42;99037.31;5115470;28;20221;-57
2023/10/07 03:40:55;;;;;;;6.20;5.18;;;;;;;16.43;92.74;99004.44;5115292;28;20179;-57
2023/10/07 03:43:26;;;;;;;9.93;5.32;;;;;;;16.52;91.40;98999.28;5115219;28;20194;-55
2023/10/07 03:45:56;;;;;;;6.43;5.47;;;;;;;16.71;90.17;99009.03;5115168;28;20239;-55
2023/10/07 03:48:25;;;;;;;6.20;5.43;;;;;;;16.59;90.71;98996.97;5115164;28;20254;-55
2023/10/07 03:51:04;;;;;;;5.80;5.20;;;;;;;16.69;90.82;99022.25;5115053;28;20650;-55
2023/10/07 03:53:32;;;;;;;6.65;5.32;;;;;;;16.77;91.17;99051.16;5114970;28;20203;-55
2023/10/07 03:56:01;;;;;;;7.40;5.38;;;;;;;16.58;91.06;99004.00;5114978;28;20673;-57
2023/10/07 03:58:28;;;;;;;6.95;5.45;;;;;;;16.61;91.70;99013.38;5114974;28;20206;-56
2023/10/07 04:00:55;;;;;;;10.73;6.00;;;;;;;16.67;91.62;99012.88;5114874;28;20197;-56
2023/10/07 04:03:23;;;;;;;8.18;5.90;;;;;;;16.84;92.91;99026.16;5114564;28;20179;-57
2023/10/07 04:05:50;;;;;;;9.32;6.65;;;;;;;16.81;93.73;99041.28;5114800;28;20701;-57
2023/10/07 04:08:18;;;;;;;9.60;6.57;;;;;;;16.62;96.51;99043.78;5114728;28;20178;-56
2023/10/07 04:10:45;;;;;;;7.45;6.25;;;;;;;16.66;97.33;99055.59;5114682;28;20306;-57
2023/10/07 04:13:21;;;;;;;8.40;6.20;;;;;;;16.63;94.44;99059.34;5114752;28;20345;-56
2023/10/07 04:15:51;;;;;;;7.20;5.32;;;;;;;16.61;95.98;99063.03;5114661;28;20542;-57
2023/10/07 04:18:17;;;;;;;9.50;6.20;;;;;;;16.59;96.78;99070.16;5114823;28;20202;-56
2023/10/07 04:23:21;;;;;;;8.32;5.60;;;;;;;16.03;95.54;99030.34;5114531;28;20179;-57
2023/10/07 04:25:47;;;;;;;7.95;5.68;;;;;;;16.18;95.29;99067.44;5114530;28;20180;-57
2023/10/07 04:28:13;;;;;;;6.85;5.80;;;;;;;16.06;94.61;99027.50;5114629;28;20236;-57
2023/10/07 04:30:39;;;;;;;9.35;5.70;;;;;;;16.16;95.02;99082.41;5114378;28;20664;-56
2023/10/07 04:33:08;;;;;;;8.27;5.93;;;;;;;16.05;94.54;99070.22;5114218;28;20290;-57
2023/10/07 04:35:39;;;;;;;7.72;5.72;;;;;;;15.93;95.31;99047.69;5114183;28;20642;-57
2023/10/07 04:43:49;;;;;;;6.70;5.93;;;;;;;15.89;95.32;99040.22;5114261;28;20189;-57
2023/10/07 04:46:22;;;;;;;6.85;6.05;;;;;;;15.87;94.43;99042.13;5114078;28;20183;-56
2023/10/07 04:48:54;;;;;;;8.15;5.32;;;;;;;15.90;94.05;99047.94;5113960;28;20191;-56
2023/10/07 04:53:59;;;;;;;7.18;5.45;;;;;;;16.20;92.47;99070.78;5114007;28;20210;-56
2023/10/07 04:56:25;;;;;;;6.55;5.63;;;;;;;16.06;91.95;99057.97;5113934;28;20535;-56
2023/10/07 04:58:54;;;;;;;9.85;5.78;;;;;;;16.06;92.00;99063.19;5113568;28;20179;-56
2023/10/07 05:01:30;;;;;;;6.32;5.05;;;;;;;16.15;92.04;99088.59;5113769;28;20167;-56
2023/10/07 05:03:58;;;;;;;9.30;5.22;;;;;;;15.95;92.19;99042.34;5113756;28;20670;-56
2023/10/07 05:06:24;;;;;;;6.38;5.53;;;;;;;16.19;92.84;99089.97;5113737;28;20203;-57
2023/10/07 05:08:50;;;;;;;10.38;5.40;;;;;;;16.00;93.10;99068.91;5113614;28;20179;-56
2023/10/07 05:11:19;;;;;;;9.73;5.30;;;;;;;16.04;92.38;99065.94;5125101;27;20193;-57
2023/10/07 05:13:46;;;;;;;9.50;5.60;;;;;;;16.03;92.82;99047.81;5113390;28;20276;-56
2023/10/07 05:16:13;;;;;;;6.53;5.22;;;;;;;15.97;92.52;99043.06;5113380;28;20172;-56
2023/10/07 05:18:38;;;;;;;11.82;5.80;;;;;;;16.27;92.03;99082.38;5113388;28;20183;-57
2023/10/07 05:21:04;;;;;;;8.85;5.90;;;;;;;16.12;92.97;99060.94;5113139;28;20221;-57
2023/10/07 05:23:30;;;;;;;10.18;6.18;;;;;;;16.17;91.66;99071.00;5113215;28;20264;-56
2023/10/07 05:25:56;;;;;;;6.03;5.43;;;;;;;16.08;90.82;99036.03;5113176;28;20250;-56
2023/10/07 05:28:21;;;;;;;6.03;5.43;;;;;;;16.26;91.04;99076.31;5113140;28;20541;-57
2023/10/07 05:30:52;;;;;;;10.77;5.80;;;;;;;16.15;91.13;99062.47;5112990;28;20175;-57
2023/10/07 05:33:17;;;;;;;7.00;5.60;;;;;;;16.38;90.44;99095.41;5112878;28;20297;-58
2023/10/07 05:35:43;;;;;;;8.05;5.40;;;;;;;16.40;90.22;99090.91;5112758;28;20259;-57
2023/10/07 05:38:12;;;;;;;9.00;5.15;;;;;;;16.12;89.65;99049.66;5112869;28;20214;-57
2023/10/07 05:40:37;;;;;;;7.82;5.38;;;;;;;16.32;89.98;99088.06;5112906;28;20179;-57
2023/10/07 05:43:06;;;;;;;7.25;5.63;;;;;;;16.23;89.49;99067.91;5112562;28;20306;-57
2023/10/07 05:45:33;;;;;;;8.90;6.22;;;;;;;16.28;88.90;99070.97;5112844;28;20191;-56
2023/10/07 05:47:59;;;;;;;12.02;5.75;;;;;;;16.25;87.96;99072.03;5112728;28;20176;-57
2023/10/07 05:50:27;;;;;;;6.07;5.40;;;;;;;16.49;87.53;99103.22;5112718;28;20175;-57
2023/10/07 05:52:54;;;;;;;10.98;6.55;;;;;;;16.40;87.01;99075.22;5111425;28;20246;-57
2023/10/07 05:55:19;;;;;;;7.32;6.07;;;;;;;16.49;87.94;99082.31;5112575;28;20534;-57
2023/10/07 05:57:45;;;;;;;6.22;5.30;;;;;;;16.61;87.75;99097.81;5112520;28;20175;-57
2023/10/07 06:00:11;;;;;;;7.15;5.53;;;;;;;16.60;86.37;99079.63;5112454;28;20168;-57
2023/10/07 06:02:40;;;;;;;8.95;5.60;;;;;;;16.78;85.89;99106.88;5112383;28;20186;-57
2023/10/07 06:05:12;;;;;;;6.18;5.38;;;;;;;16.75;86.63;99104.53;5112439;28;20190;-57
2023/10/07 06:07:41;;;;;;;7.70;5.53;;;;;;;16.65;86.64;99096.59;5112492;28;20175;-57
2023/10/07 06:10:10;;;;;;;6.00;5.18;;;;;;;16.63;86.76;99071.56;5112353;28;20168;-57
2023/10/07 06:12:36;;;;;;;13.13;5.75;;;;;;;16.75;85.72;99079.22;5112295;28;20205;-57
2023/10/07 06:15:02;;;;;;;6.95;5.32;;;;;;;17.01;84.98;99111.00;5112335;28;20539;-57
2023/10/07 06:17:27;;;;;;;15.38;6.97;;;;;;;16.91;86.46;99089.22;5112070;28;20183;-57
2023/10/07 06:19:53;;;;;;;13.77;7.68;;;;;;;17.19;85.73;99119.97;5048810;28;20185;-57
2023/10/07 06:22:22;;;;;;;11.20;6.63;;;;;;;17.24;85.24;99112.53;5049388;28;20558;-57
2023/10/07 06:24:52;;;;;;;10.00;5.65;;;;;;;17.28;83.69;99112.16;5049075;28;20278;-57
2023/10/07 06:27:21;;;;;;;9.43;5.43;;;;;;;17.46;81.11;99123.72;5047535;28;20208;-57
2023/10/07 06:29:48;;;;;;;8.48;4.55;;;;;;;17.36;80.35;99101.88;5048563;28;20189;-57
2023/10/07 06:32:23;;;;;;;9.27;5.13;;;;;;;17.50;77.38;99100.72;5048666;28;20213;-57
2023/10/07 06:34:51;;;;;;;7.47;4.57;;;;;;;17.32;77.67;99094.41;5048672;28;20545;-57
2023/10/07 06:37:28;;;;;;;13.48;5.15;;;;;;;17.61;78.58;99130.25;5048720;28;20691;-57
2023/10/07 06:39:53;;;;;;;10.70;6.03;;;;;;;17.52;79.00;99090.94;5048783;28;20193;-57
2023/10/07 06:42:24;;;;;;;10.55;4.65;;;;;;;17.95;78.13;99131.59;5048745;28;20609;-57
2023/10/07 06:44:56;;;;;;;8.30;5.43;;;;;;;17.95;76.07;99100.19;5048680;28;20185;-57
2023/10/07 06:47:29;;;;;;;7.35;5.25;;;;;;;18.18;76.25;99124.38;5048733;28;20272;-56
2023/10/07 06:49:56;;;;;;;12.70;5.18;;;;;;;17.98;74.86;99083.38;5055283;28;20179;-56
2023/10/07 06:52:22;;;;;;;10.02;5.57;;;;;;;18.18;76.84;99116.53;5111563;28;20260;-56
2023/10/07 06:54:48;;;;;;;7.70;5.97;;;;;;;18.04;77.60;99082.84;5111628;28;20262;-56
2023/10/07 06:57:14;;;;;;;6.85;5.85;;;;;;;18.19;77.79;99089.34;5111368;28;20202;-56
2023/10/07 06:59:45;;;;;;;8.07;5.78;;;;;;;18.24;77.90;99093.22;5111625;28;20171;-56
2023/10/07 07:02:18;;;;;;;10.55;5.80;;;;;;;18.14;77.62;99073.22;5111661;28;20202;-56
2023/10/07 07:04:43;;;;;;;7.93;5.28;;;;;;;18.29;78.14;99104.13;5111146;28;20655;-56
2023/10/07 07:07:13;;;;;;;12.38;5.68;;;;;;;18.11;77.83;99063.00;5111429;28;20315;-57
2023/10/07 07:09:50;;;;;;;8.75;6.15;;;;;;;18.31;77.93;99077.78;5111489;28;20763;-56
2023/10/07 07:12:18;;;;;;;8.95;6.50;;;;;;;18.37;78.83;99096.41;5111080;28;20684;-56
2023/10/07 07:17:43;;;;;;;7.07;6.00;;;;;;;18.63;77.00;99075.72;5048214;28;20189;-57
2023/10/07 07:22:42;;;;;;;10.13;6.40;;;;;;;18.74;74.69;99065.09;5048243;28;20201;-56
2023/10/07 07:25:12;;;;;;;9.13;6.32;;;;;;;18.91;73.56;99070.47;5048260;28;20785;-56
2023/10/07 07:27:44;;;;;;;9.90;6.82;;;;;;;19.21;72.20;99098.31;5048205;28;20177;-56
2023/10/07 07:30:19;;;;;;;16.08;6.95;;;;;;;19.29;71.12;99093.19;5048157;28;20195;-56
2023/10/07 07:32:55;;;;;;;12.70;6.40;;;;;;;19.52;70.34;99108.44;5048185;28;20204;-56
2023/10/07 07:35:37;;;;;;;13.25;6.07;;;;;;;19.46;68.92;99085.38;5048144;28;20292;-56
2023/10/07 07:38:03;;;;;;;9.00;5.72;;;;;;;19.61;68.98;99102.34;5048191;28;20195;-56
2023/10/07 07:40:36;;;;;;;7.55;6.20;;;;;;;19.55;68.88;99074.03;5048071;28;20215;-56
2023/10/07 07:43:02;;;;;;;10.70;6.05;;;;;;;19.66;67.88;99079.09;5047982;28;20188;-56
2023/10/07 07:45:28;;;;;;;9.07;6.80;;;;;;;19.61;67.91;99081.31;5048010;28;20181;-56
2023/10/07 07:47:54;;;;;;;12.52;7.75;;;;;;;19.71;67.57;99065.53;5048138;28;20196;-56
2023/10/07 07:50:20;;;;;;;12.90;10.35;;;;;;;19.92;66.37;99084.47;5047932;28;20197;-56
2023/10/07 07:52:49;;;;;;;21.25;11.23;;;;;;;20.05;65.25;99093.66;5047833;28;20326;-56
2023/10/07 07:55:17;;;;;;;20.13;10.30;;;;;;;20.18;65.38;99102.06;5099812;28;20191;-56
2023/10/07 07:57:44;;;;;;;17.67;10.02;;;;;;;20.24;64.93;99105.88;5110704;28;20235;-56
2023/10/07 08:00:11;;;;;;;17.38;9.20;;;;;;;20.06;65.26;99071.69;5111054;28;20633;-56
2023/10/07 08:02:36;;;;;;;14.55;9.20;;;;;;;20.09;65.45;99067.94;5110774;28;20175;-56
2023/10/07 08:05:04;;;;;;;15.48;8.45;;;;;;;20.40;65.55;99101.59;5110481;28;20174;-56
2023/10/07 08:07:30;;;;;;;14.70;8.05;;;;;;;20.18;65.75;99053.91;5110779;28;20642;-56
2023/10/07 08:09:58;;;;;;;16.40;8.48;;;;;;;20.27;65.74;99064.34;5110815;28;20177;-56
2023/10/07 08:12:31;;;;;;;14.88;7.93;;;;;;;20.53;65.46;99088.09;5109920;28;20235;-56
2023/10/07 08:14:58;;;;;;;15.98;9.43;;;;;;;20.46;65.79;99066.03;5110491;28;20202;-56
2023/10/07 08:17:27;;;;;;;18.17;9.50;;;;;;;20.65;65.56;99085.09;5114538;28;20247;-56
2023/10/07 08:19:53;;;;;;;12.52;8.20;;;;;;;20.77;64.69;99093.56;5114431;28;20213;-56
2023/10/07 08:22:20;;;;;;;12.45;7.80;;;;;;;20.58;63.77;99065.63;5114358;28;20171;-56
2023/10/07 08:24:45;;;;;;;15.02;7.28;;;;;;;20.57;64.39;99056.06;5114330;28;20175;-57
2023/10/07 08:27:43;;;;;;;17.00;7.90;;;;;;;20.85;64.04;99081.28;5116582;27;20190;-56
2023/10/07 08:30:06;;;;;;;19.73;8.45;;;;;;;20.93;63.50;99067.41;5122561;27;20252;-57
2023/10/07 08:32:41;;;;;;;15.25;8.23;;;;;;;21.14;63.07;99088.91;5114016;28;20234;-59
2023/10/07 08:35:18;;;;;;;12.80;8.00;;;;;;;21.02;61.71;99055.94;5114044;28;20546;-57
2023/10/07 08:37:48;;;;;;;14.32;8.65;;;;;;;20.82;61.45;99059.72;5113621;28;20171;-57
2023/10/07 08:40:26;;;;;;;11.30;7.43;;;;;;;20.79;61.84;99065.28;5113958;28;20676;-57
2023/10/07 08:42:55;;;;;;;12.27;7.55;;;;;;;21.04;61.64;99090.84;5113852;28;20170;-56
2023/10/07 08:45:23;;;;;;;11.32;7.35;;;;;;;21.00;62.02;99052.66;5113940;28;20707;-57
2023/10/07 08:47:51;;;;;;;14.95;7.90;;;;;;;21.15;60.45;99077.44;5114016;28;20337;-56
2023/10/07 08:50:23;;;;;;;14.50;7.95;;;;;;;21.00;61.07;99034.22;5113836;28;20191;-56
2023/10/07 08:52:56;;;;;;;10.20;7.63;;;;;;;21.27;59.94;99065.66;5113661;28;20199;-57
2023/10/07 08:55:22;;;;;;;12.55;7.80;;;;;;;21.27;59.60;99049.88;5113733;28;20190;-57
2023/10/07 08:57:49;;;;;;;16.20;6.90;;;;;;;21.50;59.05;99077.31;5113834;28;20163;-57
2023/10/07 09:00:21;;;;;;;11.68;8.00;;;;;;;21.55;59.01;99072.38;5113443;28;20185;-57
2023/10/07 09:02:47;;;;;;;11.80;6.88;;;;;;;21.35;59.24;99065.69;5113614;28;20183;-57
2023/10/07 09:05:19;;;;;;;14.63;7.78;;;;;;;21.12;59.08;99036.47;5113555;28;20231;-57
2023/10/07 09:07:49;;;;;;;12.13;7.10;;;;;;;21.17;59.45;99039.47;5113547;28;20175;-56
2023/10/07 09:10:15;;;;;;;14.02;8.80;;;;;;;21.24;58.84;99027.31;5113231;28;20179;-57
2023/10/07 09:12:48;;;;;;;15.95;7.20;;;;;;;21.18;59.32;99032.38;5112166;28;20253;-56
2023/10/07 09:15:25;;;;;;;13.07;7.75;;;;;;;21.40;59.90;99050.25;5113360;28;20187;-56
2023/10/07 09:17:51;;;;;;;14.57;8.38;;;;;;;21.32;59.26;99027.34;5113126;28;20663;-56
2023/10/07 09:20:29;;;;;;;17.42;7.35;;;;;;;21.46;59.90;99033.81;5113226;28;20250;-56
2023/10/07 09:23:14;;;;;;;14.55;8.40;;;;;;;21.47;59.56;99032.84;5113238;28;20265;-56
2023/10/07 09:25:46;;;;;;;15.15;8.38;;;;;;;21.60;59.30;99038.47;5113292;28;20167;-56
2023/10/07 09:28:13;;;;;;;10.02;7.10;;;;;;;21.29;58.95;99000.50;5125835;27;20558;-56
2023/10/07 09:33:13;;;;;;;10.52;7.00;;;;;;;21.69;59.00;99013.88;5133462;27;20221;-56
2023/10/07 09:35:42;;;;;;;9.77;7.05;;;;;;;21.90;58.86;99028.25;5133562;27;20174;-56
2023/10/07 09:38:12;;;;;;;11.50;6.30;;;;;;;21.85;57.21;99025.28;5133460;27;20182;-56
2023/10/07 09:43:47;;;;;;;15.60;6.18;;;;;;;21.64;57.24;98985.34;5069734;28;20266;-56
2023/10/07 09:46:19;;;;;;;13.30;6.03;;;;;;;21.84;56.37;98999.06;5069259;28;20192;-57
2023/10/07 09:48:45;;;;;;;11.15;7.78;;;;;;;21.90;56.51;99011.59;5069645;28;20657;-56
2023/10/07 09:51:23;;;;;;;13.07;6.05;;;;;;;22.09;55.75;99006.88;5069583;28;20185;-56
2023/10/07 09:53:51;;;;;;;9.65;6.22;;;;;;;22.26;54.58;99007.72;5069557;28;20218;-56
2023/10/07 09:56:32;;;;;;;10.73;6.28;;;;;;;22.23;54.82;98992.22;5069214;28;20661;-56
2023/10/07 09:59:17;;;;;;;12.02;6.50;;;;;;;22.09;54.92;98995.50;5069411;28;20224;-56
2023/10/07 10:01:58;;;;;;;8.23;5.55;;;;;;;22.14;55.64;98995.84;5069343;28;20298;-56
2023/10/07 10:04:24;;;;;;;8.63;6.30;;;;;;;22.34;55.24;98994.53;5069243;28;20293;-57
2023/10/07 10:07:29;;;;;;;10.15;6.30;;;;;;;22.21;54.25;98959.94;5068589;28;20273;-56
2023/10/07 10:10:05;;;;;;;9.60;5.43;;;;;;;22.47;54.49;98969.34;5069380;28;20191;-56
2023/10/07 10:13:06;;;;;;;11.48;6.10;;;;;;;22.60;54.00;98976.78;5067590;28;20236;-57
2023/10/07 10:18:35;;;;;;;15.65;6.18;;;;;;;23.03;51.65;98971.91;5097244;28;20642;-57
2023/10/07 10:21:09;;;;;;;10.00;5.75;;;;;;;23.11;51.26;98968.38;5111944;28;20186;-56
2023/10/07 10:23:37;;;;;;;12.52;5.78;;;;;;;23.09;51.55;98959.81;5112159;28;20258;-56
2023/10/07 10:26:20;;;;;;;10.93;6.35;;;;;;;23.26;52.04;98956.16;5112053;28;20167;-56
2023/10/07 10:28:59;;;;;;;9.32;5.60;;;;;;;23.41;51.34;98943.84;5111977;28;20648;-56
2023/10/07 10:31:32;;;;;;;11.27;5.53;;;;;;;23.54;50.41;98923.00;5111983;28;20189;-56
2023/10/07 10:34:08;;;;;;;15.85;5.03;;;;;;;23.70;49.46;98926.38;5111848;28;20217;-56
2023/10/07 10:36:43;;;;;;;11.73;5.82;;;;;;;23.88;48.99;98937.50;5112081;28;20269;-57
2023/10/07 10:39:24;;;;;;;8.38;5.13;;;;;;;23.44;48.21;98895.97;5111131;28;20190;-56
2023/10/07 10:41:51;;;;;;;8.50;5.35;;;;;;;23.56;48.74;98890.13;5111853;28;20641;-57
2023/10/07 10:44:17;;;;;;;8.50;5.22;;;;;;;24.02;47.51;98906.84;5111746;28;20539;-56
2023/10/07 10:46:46;;;;;;;12.68;6.10;;;;;;;24.23;47.72;98908.66;5111430;28;20264;-56
2023/10/07 10:49:20;;;;;;;13.80;6.00;;;;;;;24.42;47.26;98900.19;5111633;28;20211;-57
2023/10/07 10:51:50;;;;;;;17.52;6.13;;;;;;;24.54;46.88;98898.75;5111746;28;20178;-57
2023/10/07 10:54:19;;;;;;;11.45;5.80;;;;;;;24.53;46.05;98886.53;5111176;28;20592;-56
2023/10/07 10:56:57;;;;;;;10.60;5.93;;;;;;;24.64;45.83;98887.94;5111586;28;20694;-56
2023/10/07 10:59:36;;;;;;;14.05;5.30;;;;;;;24.38;44.76;98853.94;5111593;28;20183;-56
2023/10/07 11:02:05;;;;;;;9.00;5.45;;;;;;;24.46;46.19;98880.31;5111500;28;20183;-56
2023/10/07 11:04:31;;;;;;;10.75;5.15;;;;;;;24.55;46.34;98876.56;5111410;28;20262;-56
2023/10/07 11:06:58;;;;;;;9.10;4.90;;;;;;;24.58;46.05;98863.03;5111036;28;20175;-57
2023/10/07 11:09:33;;;;;;;8.40;5.28;;;;;;;24.83;46.30;98872.31;5111413;28;20252;-57
2023/10/07 11:12:00;;;;;;;9.00;4.85;;;;;;;24.82;45.17;98860.09;5117291;28;20221;-58
2023/10/07 11:14:26;;;;;;;8.40;4.95;;;;;;;24.71;44.60;98865.84;5131885;27;20167;-58
2023/10/07 11:16:57;;;;;;;10.25;4.75;;;;;;;24.84;45.29;98873.97;5131811;27;20269;-57
2023/10/07 11:19:25;;;;;;;13.32;5.70;;;;;;;24.55;44.49;98834.22;5131762;28;20356;-55
2023/10/07 11:21:51;;;;;;;6.65;4.53;;;;;;;24.82;44.68;98841.56;5131823;28;20622;-57
2023/10/07 11:24:30;;;;;;;12.80;7.70;;;;;;;24.95;43.08;98860.25;5131677;28;20237;-56
2023/10/07 11:26:59;;;;;;;6.43;4.88;;;;;;;24.88;44.18;98824.94;5131760;28;20166;-57
2023/10/07 11:29:29;;;;;;;14.02;5.68;;;;;;;25.10;44.31;98831.94;5131639;28;20178;-57
2023/10/07 11:32:06;;;;;;;6.18;5.28;;;;;;;25.26;42.94;98826.41;5131323;28;20552;-57
2023/10/07 11:34:37;;;;;;;8.93;5.72;;;;;;;25.35;42.29;98808.56;5131764;28;20181;-57
2023/10/07 11:37:14;;;;;;;6.63;5.50;;;;;;;25.62;42.58;98848.44;5131465;28;20182;-57
2023/10/07 11:39:45;;;;;;;8.77;5.13;;;;;;;25.58;41.42;98822.47;5131767;28;20170;-57
2023/10/07 11:42:21;;;;;;;10.65;5.05;;;;;;;25.77;41.69;98840.41;5131634;28;20198;-57
2023/10/07 11:44:54;;;;;;;12.68;5.07;;;;;;;25.78;41.17;98826.13;5131398;28;20642;-57
2023/10/07 11:47:20;;;;;;;10.15;5.57;;;;;;;25.65;40.34;98826.81;5131417;28;20247;-57
2023/10/07 11:49:46;;;;;;;9.45;4.90;;;;;;;25.42;41.68;98799.69;5132983;27;20174;-57
2023/10/07 11:52:12;;;;;;;11.70;4.60;;;;;;;25.19;41.53;98799.00;5135507;27;20243;-57
2023/10/07 11:54:39;;;;;;;8.00;4.90;;;;;;;25.17;40.84;98813.44;5135456;27;20269;-57
2023/10/07 11:57:05;;;;;;;10.90;4.63;;;;;;;25.08;41.62;98806.63;5135381;27;20175;-56
2023/10/07 11:59:35;;;;;;;11.02;4.82;;;;;;;25.01;40.93;98795.97;5127630;27;20269;-57
2023/10/07 12:02:01;;;;;;;10.90;4.53;;;;;;;25.09;41.22;98801.13;5114623;28;20229;-57
2023/10/07 12:04:27;;;;;;;9.98;4.90;;;;;;;25.33;41.63;98800.00;5114566;28;20211;-57
2023/10/07 12:06:53;;;;;;;10.95;4.88;;;;;;;25.05;40.45;98764.63;5114713;28;20179;-57
2023/10/07 12:09:21;;;;;;;11.73;5.35;;;;;;;24.94;40.17;98773.88;5114730;28;20179;-57
2023/10/07 12:11:53;;;;;;;11.18;5.40;;;;;;;24.68;40.76;98792.09;5070606;28;20230;-57
2023/10/07 12:14:20;;;;;;;5.68;3.90;;;;;;;24.68;40.63;98767.47;5071241;28;20382;-57
2023/10/07 12:16:46;;;;;;;8.55;4.68;;;;;;;24.75;40.07;98779.78;5071227;28;20197;-57
2023/10/07 12:19:11;;;;;;;7.90;5.18;;;;;;;24.58;39.55;98746.56;5071364;28;20180;-57
2023/10/07 12:21:39;;;;;;;8.30;4.05;;;;;;;24.66;40.02;98749.13;5071196;28;20604;-57
2023/10/07 12:24:06;;;;;;;6.90;4.05;;;;;;;24.63;40.08;98743.38;5071133;28;20215;-57
2023/10/07 12:26:31;;;;;;;8.07;4.40;;;;;;;24.85;40.09;98759.09;5071187;28;20185;-57